createdAt,value
2019-04-26T00:00:29.979Z,1.50
2019-04-26T00:03:03.043Z,1.50
2019-04-26T00:05:35.522Z,2.00
2019-04-26T00:08:01.776Z,1.52
2019-04-26T00:10:34.595Z,1.73
2019-04-26T00:13:04.970Z,1.95
2019-04-26T00:15:51.338Z,1.77
2019-04-26T00:18:20.914Z,1.57
2019-04-26T00:20:49.532Z,1.90
2019-04-26T00:23:18.327Z,1.95
2019-04-26T00:25:46.937Z,1.90
2019-04-26T00:28:15.467Z,1.75
2019-04-26T00:30:48.403Z,2.10
2019-04-26T00:33:23.121Z,1.60
2019-04-26T00:35:52.744Z,1.77
2019-04-26T00:38:27.691Z,1.75
2019-04-26T00:40:56.666Z,1.70
2019-04-26T00:43:25.350Z,1.72
2019-04-26T00:45:54.039Z,1.50
2019-04-26T00:48:24.079Z,1.80
2019-04-26T00:50:57.992Z,2.00
2019-04-26T00:53:28.143Z,2.37
2019-04-26T00:55:59.726Z,1.82
2019-04-26T00:58:33.472Z,1.80
2019-04-26T01:01:01.947Z,1.70
2019-04-26T01:03:30.494Z,2.58
2019-04-26T01:06:02.317Z,1.83
2019-04-26T01:08:32.387Z,1.98
2019-04-26T01:11:00.920Z,1.97
2019-04-26T01:13:30.141Z,2.10
2019-04-26T01:16:00.084Z,2.10
2019-04-26T01:18:28.650Z,1.95
2019-04-26T01:20:59.587Z,2.05
2019-04-26T01:23:28.674Z,1.82
2019-04-26T01:26:05.710Z,1.95
2019-04-26T01:28:45.212Z,2.50
2019-04-26T01:31:15.533Z,2.37
2019-04-26T01:34:05.371Z,2.27
2019-04-26T01:36:36.569Z,2.03
2019-04-26T01:39:12.753Z,1.50
2019-04-26T01:41:44.553Z,1.65
2019-04-26T01:44:21.331Z,2.10
2019-04-26T01:46:52.188Z,2.10
2019-04-26T01:49:22.367Z,2.20
2019-04-26T01:51:56.275Z,1.80
2019-04-26T01:54:27.939Z,1.60
2019-04-26T01:56:59.816Z,1.80
2019-04-26T01:59:29.446Z,1.42
2019-04-26T02:02:05.310Z,1.90
2019-04-26T02:04:35.511Z,2.00
2019-04-26T02:07:04.514Z,1.73
2019-04-26T02:09:33.066Z,1.60
2019-04-26T02:12:01.698Z,1.60
2019-04-26T02:14:31.074Z,1.90
2019-04-26T02:17:01.129Z,2.00
2019-04-26T02:19:30.104Z,1.93
2019-04-26T02:22:00.311Z,1.60
2019-04-26T02:24:34.371Z,2.15
2019-04-26T02:27:04.522Z,1.90
2019-04-26T02:29:33.123Z,2.02
2019-04-26T02:32:04.492Z,2.30
2019-04-26T02:34:36.040Z,1.90
2019-04-26T02:37:06.298Z,1.60
2019-04-26T02:39:39.913Z,2.13
2019-04-26T02:42:14.351Z,2.33
2019-04-26T02:44:50.359Z,2.00
2019-04-26T02:47:37.285Z,2.03
2019-04-26T02:50:09.958Z,2.20
2019-04-26T02:53:04.218Z,2.35
2019-04-26T02:55:56.919Z,2.10
2019-04-26T02:58:30.087Z,1.62
2019-04-26T03:01:00.374Z,1.50
2019-04-26T03:03:30.575Z,1.92
2019-04-26T03:05:59.990Z,1.97
2019-04-26T03:08:33.397Z,1.82
2019-04-26T03:11:05.322Z,1.70
2019-04-26T03:13:38.750Z,2.05
2019-04-26T03:16:11.710Z,1.75
2019-04-26T03:18:45.024Z,1.67
2019-04-26T03:21:22.514Z,2.10
2019-04-26T03:23:59.440Z,2.00
2019-04-26T03:26:51.818Z,1.70
2019-04-26T03:29:26.566Z,1.80
2019-04-26T03:32:16.477Z,1.60
2019-04-26T03:34:53.935Z,2.37
2019-04-26T03:37:44.494Z,2.00
2019-04-26T03:40:29.990Z,2.00
2019-04-26T03:43:04.217Z,2.20
2019-04-26T03:45:53.434Z,1.67
2019-04-26T03:48:28.253Z,2.05
2019-04-26T03:51:11.899Z,1.90
2019-04-26T03:53:52.518Z,2.25
2019-04-26T03:56:31.498Z,1.73
2019-04-26T03:59:23.688Z,2.37
2019-04-26T04:01:57.003Z,1.73
2019-04-26T04:04:45.530Z,2.33
2019-04-26T04:07:16.753Z,2.40
2019-04-26T04:09:48.387Z,1.90
2019-04-26T04:12:25.913Z,1.77
2019-04-26T04:14:57.609Z,2.17
2019-04-26T04:17:38.780Z,2.00
2019-04-26T04:20:14.370Z,2.20
2019-04-26T04:22:54.910Z,1.57
2019-04-26T04:25:31.871Z,2.10
2019-04-26T04:28:24.463Z,2.12
2019-04-26T04:31:04.815Z,1.77
2019-04-26T04:33:49.484Z,2.30
2019-04-26T04:36:21.292Z,2.33
2019-04-26T04:39:12.472Z,1.80
2019-04-26T04:41:49.187Z,2.03
2019-04-26T04:45:03.009Z,2.20
2019-04-26T04:47:45.059Z,2.20
2019-04-26T04:50:30.985Z,2.30
2019-04-26T04:53:23.630Z,2.60
2019-04-26T04:56:28.319Z,2.00
2019-04-26T04:58:59.982Z,2.37
2019-04-26T05:01:42.767Z,1.87
2019-04-26T05:04:27.343Z,1.90
2019-04-26T05:07:21.516Z,2.23
2019-04-26T05:09:55.857Z,2.30
2019-04-26T05:12:30.264Z,2.08
2019-04-26T05:15:01.943Z,2.20
2019-04-26T05:17:53.691Z,2.92
2019-04-26T05:20:41.597Z,2.20
2019-04-26T05:23:29.351Z,1.62
2019-04-26T05:26:41.373Z,1.90
2019-04-26T05:29:43.290Z,1.43
2019-04-26T05:32:20.517Z,1.73
2019-04-26T05:35:10.068Z,1.80
2019-04-26T05:37:53.278Z,1.85
2019-04-26T05:40:30.428Z,1.87
2019-04-26T05:43:33.647Z,1.90
2019-04-26T05:46:27.977Z,2.00
2019-04-26T05:49:38.820Z,2.10
2019-04-26T05:52:32.787Z,2.08
2019-04-26T05:55:09.034Z,1.97
2019-04-26T05:57:56.821Z,1.70
2019-04-26T06:01:22.830Z,1.65
2019-04-26T06:04:22.673Z,2.23
2019-04-26T06:07:01.556Z,2.00
2019-04-26T06:09:52.900Z,2.20
2019-04-26T06:12:40.919Z,2.10
2019-04-26T06:15:31.788Z,2.10
2019-04-26T06:18:18.623Z,1.65
2019-04-26T06:20:55.838Z,1.70
2019-04-26T06:23:43.684Z,1.70
2019-04-26T06:26:31.524Z,1.43
2019-04-26T06:29:08.322Z,1.27
2019-04-26T06:31:39.949Z,1.57
2019-04-26T06:34:14.389Z,1.47
2019-04-26T06:36:47.699Z,1.17
2019-04-26T06:39:32.727Z,1.50
2019-04-26T06:42:08.214Z,1.57
2019-04-26T06:45:02.761Z,1.32
2019-04-26T06:47:51.001Z,1.52
2019-04-26T06:50:38.794Z,1.40
2019-04-26T06:53:22.102Z,1.50
2019-04-26T06:56:05.057Z,1.63
2019-04-26T06:58:42.342Z,1.77
2019-04-26T07:01:20.952Z,1.50
2019-04-26T07:04:04.488Z,1.87
2019-04-26T07:06:42.013Z,1.60
2019-04-26T07:09:11.709Z,1.70
2019-04-26T07:12:21.074Z,1.40
2019-04-26T07:15:09.282Z,1.57
2019-04-26T07:18:04.741Z,1.25
2019-04-26T07:20:43.584Z,1.67
2019-04-26T07:23:28.353Z,1.77
2019-04-26T07:26:22.523Z,1.63
2019-04-26T07:29:28.865Z,1.63
2019-04-26T07:32:03.465Z,1.98
2019-04-26T07:34:42.473Z,1.53
2019-04-26T07:37:42.336Z,2.10
2019-04-26T07:40:52.457Z,2.00
2019-04-26T07:43:28.266Z,2.20
2019-04-26T07:46:25.767Z,2.07
2019-04-26T07:49:10.188Z,2.40
2019-04-26T07:51:59.915Z,2.73
2019-04-26T07:55:04.687Z,2.77
2019-04-26T07:57:53.254Z,2.02
2019-04-26T08:00:25.680Z,2.00
2019-04-26T08:02:58.986Z,2.08
2019-04-26T08:05:32.261Z,2.20
2019-04-26T08:08:04.237Z,2.67
2019-04-26T08:10:36.957Z,2.87
2019-04-26T08:13:11.569Z,2.30
2019-04-26T08:15:49.629Z,2.30
2019-04-26T08:18:28.252Z,2.35
2019-04-26T08:21:09.951Z,2.60
2019-04-26T08:23:41.993Z,2.47
2019-04-26T08:26:13.283Z,1.95
2019-04-26T08:28:43.658Z,2.10
2019-04-26T08:31:19.313Z,2.20
2019-04-26T08:33:56.764Z,2.42
2019-04-26T08:36:27.444Z,2.87
2019-04-26T08:38:59.078Z,2.87
2019-04-26T08:41:27.831Z,2.50
2019-04-26T08:44:15.735Z,3.33
2019-04-26T08:46:53.574Z,2.60
2019-04-26T08:49:23.958Z,1.80
2019-04-26T08:51:55.947Z,2.43
2019-04-26T08:54:26.666Z,2.08
2019-04-26T08:56:58.320Z,2.17
2019-04-26T08:59:29.589Z,2.17
2019-04-26T09:02:17.001Z,1.80
2019-04-26T09:04:48.569Z,1.90
2019-04-26T09:07:23.122Z,1.77
2019-04-26T09:09:57.412Z,1.93
2019-04-26T09:12:24.786Z,2.00
2019-04-26T09:14:53.417Z,1.90
2019-04-26T09:17:21.909Z,1.40
2019-04-26T09:19:50.368Z,1.63
2019-04-26T09:22:32.462Z,1.40
2019-04-26T09:25:18.840Z,1.70
2019-04-26T09:27:58.994Z,1.95
2019-04-26T09:30:34.347Z,1.60
2019-04-26T09:33:06.644Z,1.40
2019-04-26T09:35:35.218Z,2.20
2019-04-26T09:38:03.694Z,1.20
2019-04-26T09:40:32.192Z,2.10
2019-04-26T09:43:02.725Z,1.55
2019-04-26T09:45:44.828Z,1.47
2019-04-26T09:48:14.959Z,1.40
2019-04-26T09:50:45.052Z,1.57
2019-04-26T09:53:13.556Z,2.02
2019-04-26T09:55:42.008Z,1.93
2019-04-26T09:58:10.565Z,1.40
2019-04-26T10:00:39.169Z,2.23
2019-04-26T10:03:09.390Z,2.12
2019-04-26T10:05:37.759Z,1.77
2019-04-26T10:08:08.280Z,1.80
2019-04-26T10:10:36.534Z,1.72
2019-04-26T10:13:06.736Z,1.90
2019-04-26T10:15:42.912Z,1.67
2019-04-26T10:18:11.531Z,1.98
2019-04-26T10:20:39.921Z,2.10
2019-04-26T10:23:08.572Z,1.98
2019-04-26T10:25:37.042Z,1.67
2019-04-26T10:28:05.529Z,2.20
2019-04-26T10:30:34.066Z,1.63
2019-04-26T10:33:03.533Z,2.10
2019-04-26T10:35:32.176Z,2.30
2019-04-26T10:38:00.664Z,1.95
2019-04-26T10:40:35.235Z,3.10
2019-04-26T10:42:59.255Z,3.55
2019-04-26T10:45:29.453Z,1.90
2019-04-26T10:47:57.939Z,2.08
2019-04-26T10:50:28.815Z,2.10
2019-04-26T10:53:03.977Z,2.10
2019-04-26T10:55:34.072Z,2.22
2019-04-26T10:58:09.986Z,1.98
2019-04-26T11:00:44.088Z,2.00
2019-04-26T11:03:12.641Z,1.90
2019-04-26T11:05:41.173Z,1.80
2019-04-26T11:08:09.625Z,2.20
2019-04-26T11:10:48.048Z,2.00
2019-04-26T11:13:08.293Z,2.20
2019-04-26T11:15:36.788Z,2.00
2019-04-26T11:18:05.317Z,2.27
2019-04-26T11:20:33.888Z,1.97
2019-04-26T11:23:02.348Z,1.80
2019-04-26T11:25:30.841Z,1.80
2019-04-26T11:27:59.298Z,1.90
2019-04-26T11:30:27.779Z,2.23
2019-04-26T11:32:56.241Z,1.85
2019-04-26T11:35:24.742Z,1.77
2019-04-26T11:37:55.183Z,2.75
2019-04-26T11:40:23.414Z,1.90
2019-04-26T11:42:51.877Z,1.67
2019-04-26T11:45:20.445Z,1.43
2019-04-26T11:47:55.905Z,1.25
2019-04-26T11:50:19.157Z,1.80
2019-04-26T11:52:47.597Z,1.80
2019-04-26T11:55:16.289Z,1.72
2019-04-26T11:57:47.546Z,2.08
2019-04-26T12:00:19.363Z,1.40
2019-04-26T12:02:50.728Z,1.85
2019-04-26T12:05:34.426Z,1.70
2019-04-26T12:08:04.527Z,1.65
2019-04-26T12:10:33.090Z,1.80
2019-04-26T12:13:05.858Z,1.30
2019-04-26T12:15:31.684Z,1.20
2019-04-26T12:18:00.185Z,1.50
2019-04-26T12:20:28.730Z,1.37
2019-04-26T12:22:57.257Z,1.95
2019-04-26T12:25:25.746Z,1.23
2019-04-26T12:27:54.389Z,1.40
2019-04-26T12:30:26.374Z,1.67
2019-04-26T12:32:53.008Z,0.90
2019-04-26T12:35:21.508Z,1.40
2019-04-26T12:37:50.741Z,1.47
2019-04-26T12:40:20.111Z,1.47
2019-04-26T12:42:48.641Z,1.60
2019-04-26T12:45:34.561Z,2.12
2019-04-26T12:48:04.676Z,1.17
2019-04-26T12:50:36.796Z,2.00
2019-04-26T12:53:03.335Z,1.90
2019-04-26T12:55:32.113Z,1.80
2019-04-26T12:58:00.581Z,1.82
2019-04-26T13:00:32.912Z,1.60
2019-04-26T13:03:01.623Z,1.67
2019-04-26T13:05:30.117Z,2.43
2019-04-26T13:07:58.572Z,2.35
2019-04-26T13:10:44.945Z,2.33
2019-04-26T13:13:33.217Z,1.67
2019-04-26T13:16:06.189Z,2.20
2019-04-26T13:18:34.714Z,1.67
2019-04-26T13:21:04.384Z,1.80
2019-04-26T13:23:32.912Z,1.65
2019-04-26T13:26:01.711Z,1.65
2019-04-26T13:28:30.178Z,1.50
2019-04-26T13:31:01.822Z,1.60
2019-04-26T13:33:29.202Z,1.30
2019-04-26T13:36:04.918Z,1.23
2019-04-26T13:38:27.833Z,1.70
2019-04-26T13:40:59.689Z,1.10
2019-04-26T13:43:27.110Z,1.50
2019-04-26T13:45:58.323Z,1.50
2019-04-26T13:48:39.251Z,1.55
2019-04-26T13:51:15.300Z,1.60
2019-04-26T13:53:43.781Z,1.75
2019-04-26T13:56:12.282Z,1.50
2019-04-26T13:58:40.737Z,1.50
2019-04-26T14:01:10.300Z,1.40
2019-04-26T14:03:38.759Z,1.70
2019-04-26T14:06:07.325Z,1.50
2019-04-26T14:08:35.785Z,1.42
2019-04-26T14:11:04.689Z,1.70
2019-04-26T14:13:33.221Z,1.32
2019-04-26T14:16:01.713Z,1.60
2019-04-26T14:18:30.282Z,1.20
2019-04-26T14:21:00.003Z,1.33
2019-04-26T14:23:45.393Z,1.32
2019-04-26T14:26:19.523Z,1.50
2019-04-26T14:28:47.989Z,2.62
2019-04-26T14:31:18.137Z,1.60
2019-04-26T14:33:46.740Z,1.40
2019-04-26T14:36:18.061Z,1.77
2019-04-26T14:38:45.336Z,1.67
2019-04-26T14:41:17.886Z,1.30
2019-04-26T14:43:44.002Z,1.30
2019-04-26T14:46:14.632Z,1.60
2019-04-26T14:48:44.821Z,1.80
2019-04-26T14:51:16.807Z,1.37
2019-04-26T14:53:42.986Z,1.62
2019-04-26T14:56:11.460Z,1.70
2019-04-26T14:58:39.950Z,1.47
2019-04-26T15:01:28.471Z,1.83
2019-04-26T15:04:13.877Z,1.72
2019-04-26T15:06:43.970Z,1.43
2019-04-26T15:09:19.553Z,1.70
2019-04-26T15:11:53.548Z,1.63
2019-04-26T15:14:18.958Z,1.43
2019-04-26T15:16:44.946Z,1.63
2019-04-26T15:19:14.365Z,1.37
2019-04-26T15:21:42.810Z,1.60
2019-04-26T15:24:12.803Z,1.80
2019-04-26T15:26:41.662Z,2.17
2019-04-26T15:29:10.185Z,2.20
2019-04-26T15:31:38.641Z,1.60
2019-04-26T15:34:07.268Z,1.80
2019-04-26T15:36:35.727Z,2.03
2019-04-26T15:39:08.288Z,1.70
2019-04-26T15:41:40.934Z,1.47
2019-04-26T15:44:20.182Z,1.60
2019-04-26T15:47:05.901Z,1.60
2019-04-26T15:49:37.014Z,1.30
2019-04-26T15:52:05.674Z,1.40
2019-04-26T15:54:34.160Z,1.30
2019-04-26T15:57:02.701Z,1.12
2019-04-26T15:59:32.598Z,1.60
2019-04-26T16:02:02.517Z,1.30
2019-04-26T16:04:32.396Z,1.40
2019-04-26T16:07:02.484Z,1.07
2019-04-26T16:09:32.500Z,1.90
2019-04-26T16:12:01.122Z,1.47
2019-04-26T16:14:31.476Z,1.30
2019-04-26T16:17:04.209Z,1.47
2019-04-26T16:19:30.113Z,1.47
2019-04-26T16:21:58.582Z,1.53
2019-04-26T16:24:27.944Z,1.87
2019-04-26T16:26:57.354Z,1.40
2019-04-26T16:29:32.090Z,1.50
2019-04-26T16:32:08.003Z,1.45
2019-04-26T16:34:41.674Z,1.63
2019-04-26T16:37:09.825Z,1.80
2019-04-26T16:39:39.994Z,1.67
2019-04-26T16:42:08.595Z,2.93
2019-04-26T16:44:37.105Z,2.22
2019-04-26T16:47:06.091Z,1.77
2019-04-26T16:49:41.793Z,2.27
2019-04-26T16:52:07.099Z,1.97
2019-04-26T16:54:34.929Z,1.97
2019-04-26T16:57:06.800Z,2.40
2019-04-26T16:59:33.540Z,3.00
2019-04-26T17:02:02.807Z,3.83
2019-04-26T17:04:33.046Z,2.63
2019-04-26T17:07:02.862Z,1.80
2019-04-26T17:09:54.416Z,1.65
2019-04-26T17:12:02.496Z,1.50
2019-04-26T17:14:33.937Z,1.83
2019-04-26T17:17:02.980Z,1.37
2019-04-26T17:19:35.837Z,1.50
2019-04-26T17:22:15.962Z,1.10
2019-04-26T17:24:53.397Z,1.17
2019-04-26T17:27:23.513Z,1.40
2019-04-26T17:29:52.728Z,1.50
2019-04-26T17:32:23.113Z,1.27
2019-04-26T17:34:54.080Z,1.07
2019-04-26T17:37:21.741Z,1.30
2019-04-26T17:39:55.248Z,1.70
2019-04-26T17:42:25.330Z,1.50
2019-04-26T17:44:52.074Z,1.77
2019-04-26T17:47:20.503Z,1.40
2019-04-26T17:49:50.161Z,1.37
2019-04-26T17:52:20.380Z,12.13
2019-04-26T17:54:49.751Z,5.03
2019-04-26T17:57:32.075Z,1.90
2019-04-26T17:59:51.375Z,1.80
2019-04-26T18:02:38.664Z,1.93
2019-04-26T18:04:58.841Z,1.90
2019-04-26T18:07:39.291Z,1.80
2019-04-26T18:09:50.659Z,2.00
2019-04-26T18:12:20.654Z,1.90
2019-04-26T18:14:49.231Z,1.75
2019-04-26T18:17:38.794Z,2.00
2019-04-26T18:20:24.032Z,2.00
2019-04-26T18:23:00.212Z,2.17
2019-04-26T18:25:28.716Z,1.97
2019-04-26T18:27:57.181Z,2.22
2019-04-26T18:30:26.461Z,1.90
2019-04-26T18:32:55.115Z,2.35
2019-04-26T18:35:23.594Z,1.85
2019-04-26T18:37:53.610Z,2.30
2019-04-26T18:40:23.090Z,2.27
2019-04-26T18:42:53.083Z,2.45
2019-04-26T18:45:28.901Z,2.50
2019-04-26T18:47:54.812Z,2.98
2019-04-26T18:50:23.715Z,2.60
2019-04-26T18:53:11.454Z,2.70
2019-04-26T18:55:39.920Z,2.13
2019-04-26T18:58:08.425Z,2.62
2019-04-26T19:00:38.523Z,2.70
2019-04-26T19:03:07.060Z,2.40
2019-04-26T19:05:35.562Z,2.80
2019-04-26T19:08:05.103Z,2.70
2019-04-26T19:10:34.380Z,2.00
2019-04-26T19:13:13.674Z,2.60
2019-04-26T19:15:43.833Z,2.70
2019-04-26T19:18:16.455Z,2.60
2019-04-26T19:20:55.112Z,2.73
2019-04-26T19:23:28.925Z,2.80
2019-04-26T19:25:53.746Z,3.30
2019-04-26T19:28:22.400Z,3.58
2019-04-26T19:30:52.996Z,4.30
2019-04-26T19:33:21.597Z,3.30
2019-04-26T19:35:50.241Z,3.37
2019-04-26T19:38:18.741Z,2.83
2019-04-26T19:40:48.105Z,2.80
2019-04-26T19:43:28.236Z,3.00
2019-04-26T19:45:48.460Z,3.03
2019-04-26T19:48:22.737Z,3.80
2019-04-26T19:50:56.024Z,2.77
2019-04-26T19:53:26.148Z,3.12
2019-04-26T19:55:58.981Z,3.80
2019-04-26T19:58:29.077Z,3.20
2019-04-26T20:00:57.605Z,3.07
2019-04-26T20:03:26.106Z,2.98
2019-04-26T20:05:54.574Z,3.10
2019-04-26T20:08:23.543Z,3.22
2019-04-26T20:10:52.155Z,3.43
2019-04-26T20:13:22.049Z,3.17
2019-04-26T20:15:51.408Z,2.90
2019-04-26T20:18:21.400Z,3.70
2019-04-26T20:20:49.913Z,3.17
2019-04-26T20:23:19.598Z,3.83
2019-04-26T20:25:48.280Z,3.65
2019-04-26T20:28:16.835Z,3.00
2019-04-26T20:31:07.873Z,4.00
2019-04-26T20:33:35.220Z,3.42
2019-04-26T20:36:04.923Z,3.13
2019-04-26T20:38:42.135Z,3.62
2019-04-26T20:41:03.661Z,4.28
2019-04-26T20:43:32.246Z,9.63
2019-04-26T20:46:12.543Z,7.30
2019-04-26T20:48:33.067Z,5.72
2019-04-26T20:51:02.338Z,6.80
2019-04-26T20:53:39.677Z,6.30
2019-04-26T20:56:03.776Z,6.10
2019-04-26T20:58:31.341Z,4.75
2019-04-26T21:01:01.515Z,4.40
2019-04-26T21:03:32.082Z,4.03
2019-04-26T21:06:01.410Z,4.73
2019-04-26T21:08:31.686Z,3.45
2019-04-26T21:11:01.125Z,3.62
2019-04-26T21:13:31.135Z,3.70
2019-04-26T21:16:03.656Z,4.07
2019-04-26T21:18:33.639Z,3.70
2019-04-26T21:21:01.509Z,3.90
2019-04-26T21:23:35.066Z,4.22
2019-04-26T21:26:16.468Z,3.63
2019-04-26T21:28:49.050Z,4.25
2019-04-26T21:31:19.158Z,3.40
2019-04-26T21:34:01.178Z,4.03
2019-04-26T21:36:40.896Z,3.97
2019-04-26T21:39:13.782Z,3.80
2019-04-26T21:41:48.443Z,4.43
2019-04-26T21:44:17.181Z,4.40
2019-04-26T21:46:49.534Z,3.97
2019-04-26T21:49:20.203Z,4.37
2019-04-26T21:51:51.321Z,4.60
2019-04-26T21:54:18.090Z,3.87
2019-04-26T21:56:48.749Z,4.00
2019-04-26T21:59:16.441Z,3.30
2019-04-26T22:01:48.186Z,4.33
2019-04-26T22:04:15.134Z,3.87
2019-04-26T22:06:43.595Z,3.93
2019-04-26T22:09:33.301Z,3.03
2019-04-26T22:12:00.694Z,3.70
2019-04-26T22:14:34.077Z,4.00
2019-04-26T22:17:13.621Z,4.00
2019-04-26T22:19:55.486Z,3.73
2019-04-26T22:22:42.359Z,3.85
2019-04-26T22:25:12.942Z,4.17
2019-04-26T22:27:41.433Z,3.67
2019-04-26T22:30:13.210Z,3.30
2019-04-26T22:32:41.794Z,3.25
2019-04-26T22:35:13.392Z,3.67
2019-04-26T22:37:41.383Z,3.17
2019-04-26T22:40:14.370Z,3.60
2019-04-26T22:42:43.960Z,3.05
2019-04-26T22:45:19.926Z,2.72
2019-04-26T22:47:58.903Z,3.70
2019-04-26T22:50:27.396Z,2.85
2019-04-26T22:52:55.857Z,3.77
2019-04-26T22:55:27.365Z,3.37
2019-04-26T22:57:54.526Z,3.30
2019-04-26T23:00:28.353Z,4.07
2019-04-26T23:02:58.117Z,3.00
2019-04-26T23:05:25.242Z,3.27
2019-04-26T23:07:54.799Z,3.08
2019-04-26T23:10:31.144Z,2.75
2019-04-26T23:13:09.041Z,4.03
2019-04-26T23:15:39.182Z,3.10
2019-04-26T23:18:25.375Z,3.22
2019-04-26T23:20:55.565Z,3.20
2019-04-26T23:23:24.030Z,3.20
2019-04-26T23:25:52.520Z,3.33
2019-04-26T23:28:21.049Z,3.77
2019-04-26T23:30:49.536Z,3.05
2019-04-26T23:33:18.028Z,3.70
2019-04-26T23:35:47.660Z,3.47
2019-04-26T23:38:16.347Z,3.27
2019-04-26T23:40:44.881Z,3.53
2019-04-26T23:43:13.372Z,2.45
2019-04-26T23:45:48.092Z,3.10
2019-04-26T23:48:13.221Z,3.47
2019-04-26T23:50:43.015Z,2.80
2019-04-26T23:53:11.493Z,2.05
2019-04-26T23:55:43.911Z,2.77
2019-04-26T23:58:10.983Z,2.70
